createdAt,value
2024-04-24T00:00:09.946Z,65.93
2024-04-24T00:02:37.238Z,66.09
2024-04-24T00:05:05.827Z,65.89
2024-04-24T00:07:32.951Z,65.94
2024-04-24T00:09:59.945Z,65.86
2024-04-24T00:12:26.772Z,65.97
2024-04-24T00:14:53.590Z,66.13
2024-04-24T00:17:20.464Z,66.04
2024-04-24T00:19:47.399Z,66.17
2024-04-24T00:22:14.405Z,66.12
2024-04-24T00:24:41.238Z,66.24
2024-04-24T00:27:08.005Z,66.05
2024-04-24T00:29:34.769Z,66.25
2024-04-24T00:32:06.935Z,66.17
2024-04-24T00:34:34.367Z,66.28
2024-04-24T00:37:01.312Z,66.22
2024-04-24T00:39:28.244Z,66.59
2024-04-24T00:41:55.371Z,66.34
2024-04-24T00:44:22.277Z,66.73
2024-04-24T00:46:50.725Z,67.16
2024-04-24T00:49:19.354Z,67.14
2024-04-24T00:51:47.425Z,67.24
2024-04-24T00:54:14.750Z,67.50
2024-04-24T00:56:42.210Z,67.57
2024-04-24T00:59:09.316Z,67.81
2024-04-24T01:01:36.285Z,68.12
2024-04-24T01:04:03.227Z,68.04
2024-04-24T01:06:30.086Z,67.91
2024-04-24T01:08:57.100Z,68.23
2024-04-24T01:11:24.117Z,67.96
2024-04-24T01:13:51.330Z,67.64
2024-04-24T01:16:21.555Z,68.24
2024-04-24T01:18:56.151Z,68.13
2024-04-24T01:21:34.391Z,68.05
2024-04-24T01:24:14.101Z,67.96
2024-04-24T01:26:43.477Z,68.58
2024-04-24T01:29:10.314Z,68.02
2024-04-24T01:31:37.210Z,68.50
2024-04-24T01:34:04.030Z,68.46
2024-04-24T01:36:30.946Z,68.39
2024-04-24T01:38:58.089Z,68.35
2024-04-24T01:41:25.082Z,68.55
2024-04-24T01:43:51.894Z,68.49
2024-04-24T01:46:18.667Z,68.07
2024-04-24T01:48:45.543Z,68.33
2024-04-24T01:51:12.361Z,68.63
2024-04-24T01:53:39.174Z,68.94
2024-04-24T01:56:06.112Z,68.68
2024-04-24T01:58:32.939Z,69.01
2024-04-24T02:00:59.794Z,68.76
2024-04-24T02:03:26.601Z,69.20
2024-04-24T02:05:53.359Z,69.26
2024-04-24T02:08:20.235Z,68.98
2024-04-24T02:10:47.141Z,68.72
2024-04-24T02:13:13.926Z,68.80
2024-04-24T02:15:40.703Z,69.16
2024-04-24T02:18:07.901Z,69.45
2024-04-24T02:20:35.638Z,69.55
2024-04-24T02:23:06.693Z,69.44
2024-04-24T02:25:38.033Z,70.00
2024-04-24T02:28:09.020Z,69.52
2024-04-24T02:30:35.852Z,69.36
2024-04-24T02:33:03.414Z,69.45
2024-04-24T02:35:30.516Z,69.14
2024-04-24T02:37:57.391Z,69.12
2024-04-24T02:40:24.254Z,69.50
2024-04-24T02:42:51.018Z,69.43
2024-04-24T02:45:17.846Z,69.54
2024-04-24T02:47:44.715Z,69.46
2024-04-24T02:50:11.610Z,70.00
2024-04-24T02:52:38.458Z,70.24
2024-04-24T02:55:05.786Z,70.56
2024-04-24T02:57:35.562Z,70.52
2024-04-24T03:00:02.479Z,70.67
2024-04-24T03:02:29.420Z,70.47
2024-04-24T03:04:56.306Z,70.88
2024-04-24T03:07:23.145Z,71.46
2024-04-24T03:09:50.030Z,71.89
2024-04-24T03:12:17.667Z,72.02
2024-04-24T03:14:47.024Z,72.42
2024-04-24T03:17:14.091Z,72.65
2024-04-24T03:19:40.933Z,72.77
2024-04-24T03:22:07.816Z,72.89
2024-04-24T03:24:34.615Z,72.34
2024-04-24T03:27:01.386Z,72.14
2024-04-24T03:29:28.401Z,72.08
2024-04-24T03:31:55.298Z,71.62
2024-04-24T03:34:23.415Z,72.00
2024-04-24T03:36:50.536Z,72.55
2024-04-24T03:39:17.802Z,72.50
2024-04-24T03:41:44.555Z,72.68
2024-04-24T03:44:11.354Z,72.61
2024-04-24T03:46:40.379Z,73.41
2024-04-24T03:49:07.147Z,74.00
2024-04-24T03:51:33.946Z,74.14
2024-04-24T03:54:00.790Z,74.02
2024-04-24T03:56:27.675Z,74.46
2024-04-24T03:58:54.552Z,74.36
2024-04-24T04:01:21.803Z,74.37
2024-04-24T04:03:48.732Z,74.19
2024-04-24T04:06:15.535Z,74.26
2024-04-24T04:08:42.320Z,74.51
2024-04-24T04:11:09.368Z,74.84
2024-04-24T04:13:36.187Z,74.76
2024-04-24T04:16:03.032Z,74.73
2024-04-24T04:18:29.929Z,74.96
2024-04-24T04:20:56.980Z,75.03
2024-04-24T04:23:23.836Z,75.18
2024-04-24T04:25:50.746Z,74.94
2024-04-24T04:28:17.620Z,75.31
2024-04-24T04:30:44.468Z,75.34
2024-04-24T04:33:11.355Z,75.11
2024-04-24T04:35:38.179Z,75.30
2024-04-24T04:38:05.036Z,75.73
2024-04-24T04:40:31.815Z,75.50
2024-04-24T04:42:58.613Z,75.88
2024-04-24T04:45:25.499Z,75.64
2024-04-24T04:47:52.374Z,75.68
2024-04-24T04:50:19.357Z,75.63
2024-04-24T04:52:46.196Z,75.89
2024-04-24T04:55:14.146Z,75.45
2024-04-24T04:57:40.894Z,75.81
2024-04-24T05:00:08.287Z,75.62
2024-04-24T05:02:37.272Z,75.80
2024-04-24T05:05:04.317Z,75.98
2024-04-24T05:07:31.226Z,75.58
2024-04-24T05:09:58.027Z,75.36
2024-04-24T05:12:24.786Z,75.81
2024-04-24T05:14:52.905Z,75.94
2024-04-24T05:17:19.800Z,75.83
2024-04-24T05:19:46.740Z,76.00
2024-04-24T05:22:13.575Z,76.26
2024-04-24T05:24:40.460Z,76.09
2024-04-24T05:27:26.108Z,76.15
2024-04-24T05:29:52.901Z,76.25
2024-04-24T05:32:19.722Z,75.73
2024-04-24T05:34:46.579Z,75.95
2024-04-24T05:37:13.834Z,76.18
2024-04-24T05:39:40.747Z,75.90
2024-04-24T05:42:07.557Z,75.54
2024-04-24T05:44:35.624Z,76.11
2024-04-24T05:47:04.513Z,76.05
2024-04-24T05:49:31.347Z,75.98
2024-04-24T05:51:58.195Z,76.15
2024-04-24T05:54:25.083Z,76.49
2024-04-24T05:56:51.863Z,75.66
2024-04-24T05:59:18.702Z,75.40
2024-04-24T06:01:45.611Z,75.06
2024-04-24T06:04:12.593Z,74.93
2024-04-24T06:06:39.428Z,74.95
2024-04-24T06:09:06.275Z,74.85
2024-04-24T06:11:33.256Z,74.97
2024-04-24T06:14:00.112Z,74.97
2024-04-24T06:16:26.946Z,74.86
2024-04-24T06:18:54.227Z,74.60
2024-04-24T06:21:21.054Z,74.68
2024-04-24T06:23:48.051Z,74.86
2024-04-24T06:26:14.929Z,74.19
2024-04-24T06:28:41.769Z,74.23
2024-04-24T06:31:08.579Z,73.85
2024-04-24T06:33:36.236Z,73.76
2024-04-24T06:36:06.813Z,73.51
2024-04-24T06:38:33.741Z,73.27
2024-04-24T06:41:00.650Z,71.91
2024-04-24T06:43:27.469Z,71.80
2024-04-24T06:45:54.418Z,70.63
2024-04-24T06:48:21.299Z,70.07
2024-04-24T06:50:48.133Z,70.00
2024-04-24T06:53:14.996Z,67.54
2024-04-24T06:55:45.617Z,67.91
2024-04-24T06:58:12.740Z,67.73
2024-04-24T07:00:39.773Z,67.55
2024-04-24T07:03:07.414Z,67.31
2024-04-24T07:05:35.791Z,65.84
2024-04-24T07:08:04.621Z,65.41
2024-04-24T07:10:31.592Z,65.31
2024-04-24T07:12:58.600Z,65.51
2024-04-24T07:15:26.541Z,64.97
2024-04-24T07:17:53.447Z,64.45
2024-04-24T07:20:20.419Z,65.09
2024-04-24T07:22:47.326Z,65.42
2024-04-24T07:25:15.697Z,65.52
2024-04-24T07:27:42.556Z,65.98
2024-04-24T07:30:09.809Z,65.58
2024-04-24T07:32:36.983Z,65.19
2024-04-24T07:35:05.359Z,65.43
2024-04-24T07:37:33.563Z,64.83
2024-04-24T07:40:01.165Z,64.67
2024-04-24T07:42:28.425Z,64.33
2024-04-24T07:44:55.499Z,63.90
2024-04-24T07:47:22.766Z,63.15
2024-04-24T07:49:50.117Z,62.31
2024-04-24T07:52:17.051Z,61.39
2024-04-24T07:54:44.028Z,62.13
2024-04-24T07:57:11.026Z,62.12
2024-04-24T07:59:37.952Z,61.75
2024-04-24T08:02:05.130Z,61.40
2024-04-24T08:04:32.186Z,61.34
2024-04-24T08:06:59.055Z,61.63
2024-04-24T08:09:26.020Z,60.80
2024-04-24T08:11:53.041Z,60.72
2024-04-24T08:14:20.415Z,61.10
2024-04-24T08:16:47.411Z,60.93
2024-04-24T08:19:14.230Z,60.45
2024-04-24T08:21:40.981Z,59.58
2024-04-24T08:24:07.950Z,59.57
2024-04-24T08:26:34.833Z,59.76
2024-04-24T08:29:02.544Z,57.76
2024-04-24T08:31:29.350Z,57.34
2024-04-24T08:33:56.351Z,57.52
2024-04-24T08:36:23.612Z,57.44
2024-04-24T08:38:52.035Z,57.20
2024-04-24T08:41:19.439Z,57.41
2024-04-24T08:43:48.478Z,55.76
2024-04-24T08:46:16.288Z,56.07
2024-04-24T08:48:46.553Z,55.92
2024-04-24T08:51:15.110Z,56.44
2024-04-24T08:53:50.137Z,55.54
2024-04-24T08:56:20.299Z,54.06
2024-04-24T08:58:52.046Z,55.24
2024-04-24T09:01:24.143Z,55.34
2024-04-24T09:03:58.972Z,56.30
2024-04-24T09:06:26.589Z,56.78
2024-04-24T09:08:55.928Z,55.59
2024-04-24T09:11:23.615Z,54.98
2024-04-24T09:13:50.821Z,53.91
2024-04-24T09:16:20.617Z,54.30
2024-04-24T09:19:02.086Z,55.38
2024-04-24T09:21:32.937Z,55.36
2024-04-24T09:24:00.179Z,53.28
2024-04-24T09:26:27.960Z,53.78
2024-04-24T09:28:55.267Z,53.97
2024-04-24T09:31:23.667Z,53.71
2024-04-24T09:33:51.914Z,51.45
2024-04-24T09:36:19.013Z,54.01
2024-04-24T09:38:46.803Z,53.09
2024-04-24T09:41:13.949Z,53.20
2024-04-24T09:43:40.900Z,54.39
2024-04-24T09:46:07.797Z,54.74
2024-04-24T09:48:35.838Z,54.29
2024-04-24T09:51:02.717Z,53.42
2024-04-24T09:53:29.701Z,53.13
2024-04-24T09:56:03.332Z,51.19
2024-04-24T09:58:36.178Z,52.12
2024-04-24T10:01:04.727Z,53.19
2024-04-24T10:03:36.801Z,51.57
2024-04-24T10:06:06.460Z,52.67
2024-04-24T10:08:34.788Z,54.00
2024-04-24T10:11:08.903Z,53.81
2024-04-24T10:13:39.040Z,55.15
2024-04-24T10:16:06.520Z,54.78
2024-04-24T10:18:36.254Z,52.14
2024-04-24T10:21:04.872Z,51.82
2024-04-24T10:23:32.461Z,51.26
2024-04-24T10:26:01.026Z,51.98
2024-04-24T10:28:29.167Z,52.75
2024-04-24T10:30:58.976Z,54.02
2024-04-24T10:33:26.944Z,53.26
2024-04-24T10:35:54.252Z,53.47
2024-04-24T10:38:21.095Z,52.25
2024-04-24T10:40:50.548Z,52.43
2024-04-24T10:43:17.911Z,52.70
2024-04-24T10:45:45.211Z,53.21
2024-04-24T10:48:13.751Z,52.84
2024-04-24T10:50:42.134Z,52.23
2024-04-24T10:53:13.871Z,50.60
2024-04-24T10:55:52.935Z,52.18
2024-04-24T10:58:23.940Z,52.31
2024-04-24T11:00:50.890Z,51.63
2024-04-24T11:03:19.061Z,52.84
2024-04-24T11:05:46.244Z,49.53
2024-04-24T11:08:20.120Z,51.84
2024-04-24T11:10:54.500Z,52.37
2024-04-24T11:13:21.476Z,52.73
2024-04-24T11:15:54.893Z,52.87
2024-04-24T11:18:29.261Z,49.94
2024-04-24T11:20:56.256Z,51.72
2024-04-24T11:23:23.140Z,52.56
2024-04-24T11:25:59.382Z,52.82
2024-04-24T11:28:28.025Z,51.01
2024-04-24T11:30:55.216Z,50.81
2024-04-24T11:33:23.611Z,51.38
2024-04-24T11:35:51.581Z,49.85
2024-04-24T11:38:18.472Z,50.47
2024-04-24T11:40:45.483Z,52.29
2024-04-24T11:43:12.487Z,51.50
2024-04-24T11:45:39.418Z,50.26
2024-04-24T11:48:07.941Z,51.04
2024-04-24T11:50:36.038Z,50.52
2024-04-24T11:53:05.810Z,48.74
2024-04-24T11:55:36.871Z,49.60
2024-04-24T11:58:12.939Z,51.30
2024-04-24T12:00:41.683Z,49.71
2024-04-24T12:03:10.518Z,50.07
2024-04-24T12:05:37.631Z,47.95
2024-04-24T12:08:04.954Z,49.84
2024-04-24T12:10:31.856Z,49.91
2024-04-24T12:13:00.756Z,47.97
2024-04-24T12:15:27.551Z,49.83
2024-04-24T12:17:54.486Z,49.13
2024-04-24T12:20:21.375Z,48.42
2024-04-24T12:22:48.405Z,46.55
2024-04-24T12:25:15.767Z,48.89
2024-04-24T12:27:42.773Z,50.31
2024-04-24T12:30:09.748Z,48.40
2024-04-24T12:32:36.867Z,46.37
2024-04-24T12:35:03.877Z,47.15
2024-04-24T12:37:34.072Z,47.06
2024-04-24T12:40:02.213Z,50.10
2024-04-24T12:42:29.042Z,46.24
2024-04-24T12:44:55.810Z,47.45
2024-04-24T12:47:22.825Z,48.05
2024-04-24T12:49:49.715Z,47.44
2024-04-24T12:52:16.506Z,48.33
2024-04-24T12:54:43.268Z,46.03
2024-04-24T12:57:10.069Z,47.19
2024-04-24T12:59:36.947Z,46.78
2024-04-24T13:02:03.811Z,46.16
2024-04-24T13:04:30.694Z,49.52
2024-04-24T13:06:58.989Z,45.23
2024-04-24T13:09:25.933Z,47.10
2024-04-24T13:11:52.914Z,48.04
2024-04-24T13:14:19.730Z,45.03
2024-04-24T13:16:46.790Z,46.82
2024-04-24T13:19:13.753Z,47.59
2024-04-24T13:21:40.667Z,46.48
2024-04-24T13:24:08.958Z,46.59
2024-04-24T13:26:36.100Z,45.10
2024-04-24T13:29:03.169Z,46.83
2024-04-24T13:31:29.975Z,44.30
2024-04-24T13:33:56.955Z,47.14
2024-04-24T13:36:23.838Z,47.42
2024-04-24T13:38:53.300Z,48.81
2024-04-24T13:41:21.512Z,47.08
2024-04-24T13:43:53.954Z,47.50
2024-04-24T13:46:20.951Z,47.21
2024-04-24T13:48:48.812Z,46.85
2024-04-24T13:51:15.836Z,44.58
2024-04-24T13:53:42.719Z,46.51
2024-04-24T13:56:09.646Z,49.01
2024-04-24T13:58:38.137Z,44.46
2024-04-24T14:01:05.228Z,45.54
2024-04-24T14:03:32.390Z,45.41
2024-04-24T14:06:01.378Z,46.87
2024-04-24T14:08:28.763Z,48.43
2024-04-24T14:10:56.299Z,47.70
2024-04-24T14:13:23.139Z,48.31
2024-04-24T14:15:51.388Z,48.25
2024-04-24T14:18:18.244Z,49.17
2024-04-24T14:20:45.001Z,48.01
2024-04-24T14:23:11.821Z,48.16
2024-04-24T14:25:38.642Z,46.94
2024-04-24T14:28:05.857Z,48.08
2024-04-24T14:30:32.650Z,47.48
2024-04-24T14:32:59.555Z,49.12
2024-04-24T14:35:26.561Z,47.70
2024-04-24T14:37:53.993Z,48.11
2024-04-24T14:40:20.859Z,49.33
2024-04-24T14:42:49.007Z,48.39
2024-04-24T14:45:15.921Z,48.03
2024-04-24T14:47:42.859Z,47.55
2024-04-24T14:50:10.912Z,47.94
2024-04-24T14:52:38.189Z,47.71
2024-04-24T14:55:06.002Z,48.41
2024-04-24T14:57:32.819Z,47.47
2024-04-24T14:59:59.570Z,48.78
2024-04-24T15:02:26.499Z,46.05
2024-04-24T15:04:53.548Z,45.14
2024-04-24T15:07:20.509Z,44.83
2024-04-24T15:09:47.369Z,45.69
2024-04-24T15:12:15.195Z,46.02
2024-04-24T15:14:42.233Z,46.94
2024-04-24T15:17:09.158Z,47.49
2024-04-24T15:19:36.358Z,47.31
2024-04-24T15:22:03.414Z,44.61
2024-04-24T15:24:30.438Z,45.99
2024-04-24T15:26:57.251Z,46.01
2024-04-24T15:29:24.196Z,44.60
2024-04-24T15:31:51.028Z,47.27
2024-04-24T15:34:18.384Z,46.42
2024-04-24T15:36:45.262Z,45.71
2024-04-24T15:39:12.747Z,47.15
2024-04-24T15:41:39.992Z,46.66
2024-04-24T15:44:06.920Z,46.51
2024-04-24T15:46:33.773Z,44.51
2024-04-24T15:49:00.623Z,46.93
2024-04-24T15:51:27.526Z,46.62
2024-04-24T15:53:54.770Z,47.01
2024-04-24T15:56:21.644Z,47.92
2024-04-24T15:58:48.598Z,45.58
2024-04-24T16:01:16.821Z,46.49
2024-04-24T16:03:43.668Z,45.04
2024-04-24T16:06:10.546Z,48.17
2024-04-24T16:08:37.636Z,45.02
2024-04-24T16:11:05.053Z,45.38
2024-04-24T16:13:32.067Z,46.52
2024-04-24T16:15:58.899Z,47.55
2024-04-24T16:18:32.663Z,47.48
2024-04-24T16:21:03.471Z,45.46
2024-04-24T16:23:30.421Z,46.00
2024-04-24T16:25:57.417Z,49.24
2024-04-24T16:28:24.314Z,45.94
2024-04-24T16:30:51.140Z,43.88
2024-04-24T16:33:18.100Z,44.54
2024-04-24T16:35:44.949Z,46.03
2024-04-24T16:38:11.710Z,46.67
2024-04-24T16:40:40.530Z,46.85
2024-04-24T16:43:07.407Z,47.06
2024-04-24T16:45:34.619Z,48.56
2024-04-24T16:48:01.644Z,48.52
2024-04-24T16:50:28.651Z,47.59
2024-04-24T16:52:55.489Z,44.18
2024-04-24T16:55:23.017Z,45.37
2024-04-24T16:57:49.828Z,47.39
2024-04-24T17:00:16.945Z,47.54
2024-04-24T17:02:43.903Z,47.63
2024-04-24T17:05:11.320Z,48.41
2024-04-24T17:07:38.205Z,47.50
2024-04-24T17:10:05.408Z,47.82
2024-04-24T17:12:32.226Z,48.11
2024-04-24T17:14:59.228Z,48.31
2024-04-24T17:17:26.205Z,48.54
2024-04-24T17:19:53.091Z,45.62
2024-04-24T17:22:19.902Z,47.43
2024-04-24T17:24:47.683Z,49.01
2024-04-24T17:27:17.500Z,49.05
2024-04-24T17:29:44.969Z,49.46
2024-04-24T17:32:11.877Z,50.04
2024-04-24T17:34:39.007Z,50.46
2024-04-24T17:37:05.908Z,48.88
2024-04-24T17:39:32.789Z,49.01
2024-04-24T17:42:00.972Z,49.18
2024-04-24T17:44:30.804Z,49.73
2024-04-24T17:46:57.711Z,50.16
2024-04-24T17:49:24.528Z,49.33
2024-04-24T17:51:51.293Z,49.44
2024-04-24T17:54:18.059Z,48.29
2024-04-24T17:56:44.942Z,46.62
2024-04-24T17:59:13.062Z,48.82
2024-04-24T18:01:39.876Z,49.58
2024-04-24T18:04:06.804Z,50.51
2024-04-24T18:06:33.697Z,51.46
2024-04-24T18:09:00.638Z,51.78
2024-04-24T18:11:27.608Z,50.77
2024-04-24T18:13:54.462Z,50.40
2024-04-24T18:16:21.441Z,50.39
2024-04-24T18:18:48.385Z,50.26
2024-04-24T18:21:15.255Z,50.19
2024-04-24T18:23:42.205Z,50.06
2024-04-24T18:26:09.128Z,51.00
2024-04-24T18:28:36.178Z,50.72
2024-04-24T18:31:03.046Z,51.22
2024-04-24T18:33:29.954Z,52.59
2024-04-24T18:35:56.918Z,52.60
2024-04-24T18:38:24.602Z,53.35
2024-04-24T18:40:51.586Z,53.33
2024-04-24T18:43:18.532Z,54.16
2024-04-24T18:45:45.356Z,54.49
2024-04-24T18:48:13.277Z,55.27
2024-04-24T18:50:40.306Z,56.11
2024-04-24T18:53:07.233Z,56.38
2024-04-24T18:55:34.186Z,56.59
2024-04-24T18:58:01.280Z,56.56
2024-04-24T19:00:29.607Z,57.05
2024-04-24T19:02:56.459Z,56.31
2024-04-24T19:05:24.459Z,56.44
2024-04-24T19:07:51.416Z,56.71
2024-04-24T19:10:18.258Z,57.02
2024-04-24T19:12:45.396Z,57.04
2024-04-24T19:15:12.225Z,56.94
2024-04-24T19:17:41.037Z,56.81
2024-04-24T19:20:09.541Z,56.79
2024-04-24T19:22:38.802Z,56.30
2024-04-24T19:25:05.882Z,56.17
2024-04-24T19:27:40.497Z,56.28
2024-04-24T19:30:10.170Z,56.47
2024-04-24T19:32:37.324Z,56.62
2024-04-24T19:35:04.610Z,56.97
2024-04-24T19:37:32.174Z,57.37
2024-04-24T19:39:59.023Z,57.53
2024-04-24T19:42:26.443Z,58.01
2024-04-24T19:44:54.837Z,57.55
2024-04-24T19:47:21.703Z,57.94
2024-04-24T19:49:51.792Z,58.08
2024-04-24T19:52:18.700Z,58.56
2024-04-24T19:54:45.850Z,58.10
2024-04-24T19:57:13.745Z,58.33
2024-04-24T19:59:40.684Z,58.96
2024-04-24T20:02:07.696Z,59.66
2024-04-24T20:04:34.602Z,59.62
2024-04-24T20:07:01.854Z,59.68
2024-04-24T20:09:28.664Z,59.48
2024-04-24T20:11:55.590Z,60.04
2024-04-24T20:14:22.591Z,60.75
2024-04-24T20:16:49.505Z,60.47
2024-04-24T20:19:19.129Z,60.74
2024-04-24T20:21:46.039Z,61.49
2024-04-24T20:24:13.895Z,61.69
2024-04-24T20:26:40.907Z,61.77
2024-04-24T20:29:07.896Z,61.75
2024-04-24T20:31:35.451Z,61.96
2024-04-24T20:34:04.484Z,62.28
2024-04-24T20:36:31.858Z,62.56
2024-04-24T20:39:00.977Z,62.99
2024-04-24T20:41:30.439Z,63.01
2024-04-24T20:43:57.346Z,62.94
2024-04-24T20:46:24.150Z,63.93
2024-04-24T20:48:50.942Z,63.30
2024-04-24T20:51:17.893Z,63.94
2024-04-24T20:53:45.024Z,64.58
2024-04-24T20:56:17.030Z,64.51
2024-04-24T20:58:46.806Z,64.60
2024-04-24T21:01:14.345Z,64.62
2024-04-24T21:03:41.333Z,64.76
2024-04-24T21:06:09.511Z,64.98
2024-04-24T21:08:36.791Z,65.26
2024-04-24T21:11:04.730Z,65.27
2024-04-24T21:13:32.614Z,65.46
2024-04-24T21:15:59.473Z,65.51
2024-04-24T21:18:26.654Z,65.90
2024-04-24T21:20:57.056Z,65.54
2024-04-24T21:23:23.915Z,66.00
2024-04-24T21:25:50.679Z,66.16
2024-04-24T21:28:17.591Z,66.54
2024-04-24T21:30:44.393Z,66.52
2024-04-24T21:33:11.369Z,66.52
2024-04-24T21:35:38.832Z,66.76
2024-04-24T21:38:05.905Z,66.99
2024-04-24T21:40:32.861Z,67.25
2024-04-24T21:42:59.647Z,67.16
2024-04-24T21:45:27.656Z,67.27
2024-04-24T21:47:55.177Z,67.50
2024-04-24T21:50:22.201Z,67.41
2024-04-24T21:52:49.077Z,67.65
2024-04-24T21:55:15.844Z,67.66
2024-04-24T21:57:42.721Z,67.83
2024-04-24T22:00:10.058Z,67.98
2024-04-24T22:02:36.995Z,67.90
2024-04-24T22:05:04.383Z,68.02
2024-04-24T22:07:31.213Z,68.10
2024-04-24T22:09:58.079Z,68.17
2024-04-24T22:12:25.054Z,68.49
2024-04-24T22:14:51.939Z,68.29
2024-04-24T22:17:24.950Z,68.58
2024-04-24T22:19:54.520Z,68.47
2024-04-24T22:22:23.248Z,68.58
2024-04-24T22:24:51.567Z,68.84
2024-04-24T22:27:18.390Z,68.85
2024-04-24T22:29:45.615Z,68.91
2024-04-24T22:32:12.670Z,69.03
2024-04-24T22:34:43.375Z,69.10
2024-04-24T22:37:10.228Z,69.08
2024-04-24T22:39:36.992Z,69.25
2024-04-24T22:42:05.001Z,69.38
2024-04-24T22:44:32.076Z,69.40
2024-04-24T22:46:58.974Z,69.28
2024-04-24T22:49:25.797Z,69.50
2024-04-24T22:51:52.634Z,69.48
2024-04-24T22:54:19.443Z,69.84
2024-04-24T22:56:46.252Z,69.62
2024-04-24T22:59:13.171Z,70.16
2024-04-24T23:01:40.219Z,69.73
2024-04-24T23:04:07.192Z,69.96
2024-04-24T23:06:34.419Z,70.05
2024-04-24T23:09:01.255Z,70.27
2024-04-24T23:11:28.077Z,70.15
2024-04-24T23:13:54.908Z,70.10
2024-04-24T23:16:21.691Z,70.22
2024-04-24T23:18:48.509Z,70.23
2024-04-24T23:21:15.390Z,70.26
2024-04-24T23:23:42.294Z,70.47
2024-04-24T23:26:09.131Z,70.68
2024-04-24T23:28:36.009Z,70.75
2024-04-24T23:31:02.859Z,70.68
2024-04-24T23:33:29.786Z,70.81
2024-04-24T23:36:04.752Z,70.76
2024-04-24T23:38:32.823Z,70.68
2024-04-24T23:40:59.696Z,70.80
2024-04-24T23:43:26.490Z,70.89
2024-04-24T23:45:53.379Z,70.98
2024-04-24T23:48:20.326Z,71.01
2024-04-24T23:50:47.272Z,71.28
2024-04-24T23:53:14.233Z,71.27
2024-04-24T23:55:43.043Z,71.61
2024-04-24T23:58:09.876Z,71.76
